createdAt,value
2018-01-06T00:02:23.584Z,18.40
2018-01-06T00:04:51.790Z,9.17
2018-01-06T00:07:20.013Z,15.77
2018-01-06T00:09:48.258Z,12.63
2018-01-06T00:12:16.613Z,16.20
2018-01-06T00:14:44.193Z,18.13
2018-01-06T00:17:12.026Z,13.60
2018-01-06T00:19:39.639Z,14.43
2018-01-06T00:22:07.962Z,11.50
2018-01-06T00:24:35.534Z,13.73
2018-01-06T00:27:03.096Z,16.03
2018-01-06T00:29:30.684Z,13.67
2018-01-06T00:31:59.011Z,15.40
2018-01-06T00:34:26.579Z,10.77
2018-01-06T00:36:54.181Z,11.50
2018-01-06T00:39:21.765Z,11.00
2018-01-06T00:41:50.110Z,13.83
2018-01-06T00:44:18.984Z,10.13
2018-01-06T00:46:46.558Z,14.97
2018-01-06T00:49:14.137Z,10.23
2018-01-06T00:51:41.717Z,9.10
2018-01-06T00:54:10.109Z,15.90
2018-01-06T00:56:38.446Z,17.70
2018-01-06T00:59:06.070Z,13.67
2018-01-06T01:01:33.667Z,13.93
2018-01-06T01:04:01.923Z,11.93
2018-01-06T01:06:29.481Z,9.03
2018-01-06T01:08:57.138Z,8.30
2018-01-06T01:11:24.713Z,6.80
2018-01-06T01:13:52.366Z,10.93
2018-01-06T01:16:19.960Z,14.37
2018-01-06T01:18:47.548Z,13.33
2018-01-06T01:21:15.119Z,13.50
2018-01-06T01:23:42.720Z,13.40
2018-01-06T01:26:10.313Z,12.33
2018-01-06T01:28:38.656Z,13.17
2018-01-06T01:31:06.494Z,13.67
2018-01-06T01:33:34.033Z,14.70
2018-01-06T01:36:02.385Z,11.33
2018-01-06T01:38:30.725Z,9.87
2018-01-06T01:40:58.290Z,10.80
2018-01-06T01:43:25.869Z,9.87
2018-01-06T01:45:53.486Z,7.63
2018-01-06T01:48:21.114Z,14.70
2018-01-06T01:50:48.697Z,9.50
2018-01-06T01:53:17.472Z,18.60
2018-01-06T01:55:45.872Z,12.93
2018-01-06T01:58:14.234Z,13.13
2018-01-06T02:00:42.563Z,17.50
2018-01-06T02:03:10.132Z,15.80
2018-01-06T02:05:37.727Z,8.80
2018-01-06T02:08:05.501Z,15.63
2018-01-06T02:10:33.847Z,13.00
2018-01-06T02:13:01.433Z,23.83
2018-01-06T02:15:29.796Z,15.80
2018-01-06T02:17:57.384Z,14.03
2018-01-06T02:20:25.727Z,15.43
2018-01-06T02:22:54.072Z,13.87
2018-01-06T02:25:21.625Z,15.87
2018-01-06T02:27:49.197Z,12.17
2018-01-06T02:30:16.756Z,5.67
2018-01-06T02:32:44.317Z,6.87
2018-01-06T02:35:11.885Z,10.83
2018-01-06T02:37:39.468Z,5.83
2018-01-06T02:40:07.095Z,10.63
2018-01-06T02:42:34.653Z,6.80
2018-01-06T02:45:02.261Z,14.23
2018-01-06T02:47:29.897Z,6.07
2018-01-06T02:49:58.222Z,4.27
2018-01-06T02:52:26.557Z,12.50
2018-01-06T02:54:54.095Z,9.73
2018-01-06T02:57:21.685Z,14.30
2018-01-06T02:59:49.240Z,10.87
2018-01-06T03:02:16.847Z,9.33
2018-01-06T03:04:45.161Z,6.00
2018-01-06T03:07:12.761Z,15.77
2018-01-06T03:09:40.328Z,9.00
2018-01-06T03:12:07.890Z,10.70
2018-01-06T03:14:35.444Z,13.23
2018-01-06T03:17:03.017Z,9.60
2018-01-06T03:19:30.647Z,8.43
2018-01-06T03:21:58.218Z,11.33
2018-01-06T03:24:25.785Z,4.43
2018-01-06T03:26:53.372Z,11.73
2018-01-06T03:29:21.697Z,7.53
2018-01-06T03:31:49.269Z,6.17
2018-01-06T03:34:16.827Z,6.40
2018-01-06T03:36:44.472Z,5.97
2018-01-06T03:39:12.106Z,9.10
2018-01-06T03:41:40.437Z,10.10
2018-01-06T03:44:08.017Z,11.40
2018-01-06T03:46:35.589Z,7.30
2018-01-06T03:49:03.144Z,7.70
2018-01-06T03:51:30.701Z,8.13
2018-01-06T03:53:58.275Z,7.33
2018-01-06T03:56:26.612Z,5.53
2018-01-06T03:58:54.162Z,17.00
2018-01-06T04:01:21.720Z,5.33
2018-01-06T04:03:49.340Z,9.07
2018-01-06T04:06:17.865Z,5.20
2018-01-06T04:08:45.424Z,3.80
2018-01-06T04:11:12.993Z,5.20
2018-01-06T04:13:40.610Z,8.80
2018-01-06T04:16:08.963Z,7.57
2018-01-06T04:18:36.541Z,9.60
2018-01-06T04:21:04.888Z,4.67
2018-01-06T04:23:32.437Z,11.23
2018-01-06T04:26:00.032Z,11.07
2018-01-06T04:28:27.615Z,7.27
2018-01-06T04:30:55.152Z,6.83
2018-01-06T04:33:22.708Z,5.93
2018-01-06T04:35:50.261Z,9.40
2018-01-06T04:38:17.816Z,5.10
2018-01-06T04:40:45.385Z,10.27
2018-01-06T04:43:13.020Z,7.80
2018-01-06T04:45:41.296Z,8.63
2018-01-06T04:48:08.873Z,4.83
2018-01-06T04:50:36.430Z,7.80
2018-01-06T04:53:04.002Z,7.23
2018-01-06T04:55:32.359Z,5.80
2018-01-06T04:57:59.916Z,4.63
2018-01-06T05:00:27.477Z,3.40
2018-01-06T05:02:55.051Z,6.97
2018-01-06T05:05:22.639Z,6.83
2018-01-06T05:07:50.208Z,7.30
2018-01-06T05:10:18.608Z,5.47
2018-01-06T05:12:46.182Z,5.97
2018-01-06T05:15:13.748Z,3.20
2018-01-06T05:17:41.427Z,8.63
2018-01-06T05:20:08.981Z,8.97
2018-01-06T05:22:36.552Z,8.53
2018-01-06T05:25:04.181Z,5.73
2018-01-06T05:27:31.725Z,11.80
2018-01-06T05:30:00.071Z,4.63
2018-01-06T05:32:27.734Z,8.60
2018-01-06T05:34:56.142Z,16.30
2018-01-06T05:37:24.466Z,6.90
2018-01-06T05:39:52.021Z,6.40
2018-01-06T05:42:20.007Z,5.30
2018-01-06T05:44:47.550Z,6.20
2018-01-06T05:47:15.149Z,7.73
2018-01-06T05:49:42.740Z,4.33
2018-01-06T05:52:11.129Z,8.03
2018-01-06T05:54:38.700Z,6.20
2018-01-06T05:57:06.317Z,6.20
2018-01-06T05:59:33.897Z,5.63
2018-01-06T06:02:02.237Z,10.27
2018-01-06T06:04:29.841Z,5.23
2018-01-06T06:06:58.428Z,12.03
2018-01-06T06:09:26.804Z,9.33
2018-01-06T06:11:55.193Z,7.10
2018-01-06T06:14:23.533Z,5.87
2018-01-06T06:16:51.853Z,7.37
2018-01-06T06:19:19.442Z,5.97
2018-01-06T06:21:47.022Z,3.10
2018-01-06T06:24:14.603Z,12.70
2018-01-06T06:26:42.157Z,6.27
2018-01-06T06:29:09.727Z,6.47
2018-01-06T06:31:37.342Z,12.57
2018-01-06T06:34:05.637Z,8.80
2018-01-06T06:36:33.956Z,8.40
2018-01-06T06:39:02.367Z,7.03
2018-01-06T06:41:29.958Z,7.33
2018-01-06T06:43:57.517Z,8.10
2018-01-06T06:46:25.093Z,4.77
2018-01-06T06:48:53.227Z,7.53
2018-01-06T06:51:20.782Z,3.60
2018-01-06T06:53:49.096Z,11.83
2018-01-06T06:56:16.673Z,12.97
2018-01-06T06:58:44.269Z,10.13
2018-01-06T07:01:12.594Z,6.43
2018-01-06T07:03:40.170Z,10.23
2018-01-06T07:06:07.748Z,8.00
2018-01-06T07:08:35.332Z,8.93
2018-01-06T07:11:03.649Z,6.00
2018-01-06T07:13:31.207Z,5.63
2018-01-06T07:15:58.756Z,11.30
2018-01-06T07:18:26.325Z,7.23
2018-01-06T07:20:54.039Z,12.80
2018-01-06T07:23:22.385Z,7.53
2018-01-06T07:25:49.943Z,5.23
2018-01-06T07:28:17.527Z,5.50
2018-01-06T07:30:45.074Z,6.73
2018-01-06T07:33:12.646Z,11.10
2018-01-06T07:35:40.181Z,9.83
2018-01-06T07:38:07.857Z,7.30
2018-01-06T07:40:35.425Z,7.20
2018-01-06T07:43:02.984Z,8.70
2018-01-06T07:45:30.537Z,6.30
2018-01-06T07:47:58.160Z,12.90
2018-01-06T07:50:25.700Z,16.43
2018-01-06T07:52:54.033Z,8.30
2018-01-06T07:55:21.644Z,8.77
2018-01-06T07:57:49.242Z,6.70
2018-01-06T08:00:16.797Z,9.27
2018-01-06T08:02:44.356Z,11.13
2018-01-06T08:05:11.929Z,5.07
2018-01-06T08:07:39.566Z,9.23
2018-01-06T08:10:07.893Z,10.83
2018-01-06T08:12:35.447Z,6.60
2018-01-06T08:15:02.997Z,6.43
2018-01-06T08:17:30.657Z,9.47
2018-01-06T08:19:58.272Z,9.20
2018-01-06T08:22:25.856Z,8.13
2018-01-06T08:24:53.420Z,13.93
2018-01-06T08:27:21.029Z,10.77
2018-01-06T08:29:48.594Z,6.13
2018-01-06T08:32:16.167Z,5.90
2018-01-06T08:34:44.498Z,13.60
2018-01-06T08:37:12.074Z,7.20
2018-01-06T08:39:39.629Z,7.47
2018-01-06T08:42:07.187Z,9.23
2018-01-06T08:44:34.785Z,5.23
2018-01-06T08:47:03.113Z,7.23
2018-01-06T08:49:30.719Z,4.97
2018-01-06T08:51:58.292Z,5.77
2018-01-06T08:54:26.629Z,6.17
2018-01-06T08:56:54.192Z,10.30
2018-01-06T08:59:21.782Z,7.77
2018-01-06T09:01:50.134Z,10.27
2018-01-06T09:04:17.708Z,8.47
2018-01-06T09:06:45.281Z,6.93
2018-01-06T09:09:13.629Z,12.20
2018-01-06T09:11:41.193Z,10.03
2018-01-06T09:14:08.813Z,9.13
2018-01-06T09:16:36.380Z,5.53
2018-01-06T09:19:03.952Z,7.50
2018-01-06T09:21:31.583Z,10.27
2018-01-06T09:23:59.148Z,12.50
2018-01-06T09:26:26.745Z,6.70
2018-01-06T09:28:54.336Z,12.40
2018-01-06T09:31:21.940Z,8.57
2018-01-06T09:33:49.501Z,8.00
2018-01-06T09:36:17.078Z,7.37
2018-01-06T09:38:44.692Z,10.67
2018-01-06T09:41:12.282Z,8.10
2018-01-06T09:43:39.857Z,10.27
2018-01-06T09:46:07.418Z,5.30
2018-01-06T09:48:34.998Z,12.03
2018-01-06T09:51:02.551Z,11.13
2018-01-06T09:53:30.110Z,8.13
2018-01-06T09:55:57.704Z,10.87
2018-01-06T09:58:25.285Z,7.60
2018-01-06T10:00:53.626Z,11.60
2018-01-06T10:03:21.186Z,9.57
2018-01-06T10:05:48.746Z,8.47
2018-01-06T10:08:16.348Z,12.50
2018-01-06T10:10:44.725Z,7.73
2018-01-06T10:13:13.057Z,9.40
2018-01-06T10:15:40.653Z,11.57
2018-01-06T10:18:08.249Z,7.60
2018-01-06T10:20:35.836Z,11.73
2018-01-06T10:23:03.394Z,15.37
2018-01-06T10:25:30.996Z,7.30
2018-01-06T10:27:58.553Z,10.07
2018-01-06T10:30:26.159Z,7.30
2018-01-06T10:32:53.695Z,7.57
2018-01-06T10:35:22.046Z,9.73
2018-01-06T10:37:49.608Z,9.43
2018-01-06T10:40:17.272Z,13.60
2018-01-06T10:42:44.822Z,8.80
2018-01-06T10:45:12.434Z,14.43
2018-01-06T10:47:40.014Z,8.77
2018-01-06T10:50:07.607Z,16.70
2018-01-06T10:52:35.929Z,7.80
2018-01-06T10:55:04.249Z,10.30
2018-01-06T10:57:31.846Z,9.30
2018-01-06T10:59:59.421Z,12.07
2018-01-06T11:02:27.865Z,10.40
2018-01-06T11:04:55.506Z,17.97
2018-01-06T11:07:23.083Z,10.87
2018-01-06T11:09:50.745Z,11.50
2018-01-06T11:12:18.389Z,8.63
2018-01-06T11:14:45.948Z,15.27
2018-01-06T11:17:13.574Z,11.40
2018-01-06T11:19:41.986Z,12.87
2018-01-06T11:22:09.576Z,11.50
2018-01-06T11:24:37.181Z,10.03
2018-01-06T11:27:05.526Z,11.20
2018-01-06T11:29:33.117Z,14.53
2018-01-06T11:32:01.445Z,12.83
2018-01-06T11:34:29.020Z,7.67
2018-01-06T11:36:56.579Z,10.70
2018-01-06T11:39:24.155Z,12.73
2018-01-06T11:41:51.710Z,10.57
2018-01-06T11:44:19.290Z,14.80
2018-01-06T11:46:47.634Z,13.27
2018-01-06T11:49:15.215Z,15.37
2018-01-06T11:51:42.828Z,14.13
2018-01-06T11:54:10.393Z,10.60
2018-01-06T11:56:37.971Z,9.37
2018-01-06T11:59:05.513Z,13.83
2018-01-06T12:01:33.094Z,9.30
2018-01-06T12:04:00.650Z,18.30
2018-01-06T12:06:28.270Z,13.97
2018-01-06T12:08:56.588Z,12.43
2018-01-06T12:11:24.175Z,11.83
2018-01-06T12:13:51.777Z,15.23
2018-01-06T12:16:19.354Z,13.30
2018-01-06T12:18:46.943Z,11.60
2018-01-06T12:21:14.574Z,10.60
2018-01-06T12:23:42.134Z,14.60
2018-01-06T12:26:09.714Z,28.33
2018-01-06T12:28:37.304Z,18.60
2018-01-06T12:31:04.880Z,17.37
2018-01-06T12:33:33.234Z,11.13
2018-01-06T12:36:00.838Z,14.00
2018-01-06T12:38:29.172Z,14.83
2018-01-06T12:40:56.730Z,13.27
2018-01-06T12:43:24.296Z,15.50
2018-01-06T12:45:51.861Z,10.23
2018-01-06T12:48:36.047Z,26.27
2018-01-06T12:51:04.385Z,12.43
2018-01-06T12:53:32.026Z,17.10
2018-01-06T12:55:59.585Z,18.10
2018-01-06T12:58:27.186Z,16.20
2018-01-06T13:00:54.767Z,14.07
2018-01-06T13:03:23.216Z,19.90
2018-01-06T13:05:51.570Z,22.93
2018-01-06T13:08:19.154Z,13.17
2018-01-06T13:10:46.777Z,10.33
2018-01-06T13:13:14.505Z,13.37
2018-01-06T13:15:42.825Z,10.73
2018-01-06T13:18:10.429Z,14.77
2018-01-06T13:20:38.105Z,15.73
2018-01-06T13:23:06.498Z,14.50
2018-01-06T13:25:34.905Z,11.97
2018-01-06T13:28:02.552Z,13.87
2018-01-06T13:30:30.953Z,14.50
2018-01-06T13:32:58.575Z,12.77
2018-01-06T13:35:26.122Z,9.80
2018-01-06T13:37:53.702Z,19.47
2018-01-06T13:40:22.107Z,12.67
2018-01-06T13:42:49.693Z,10.93
2018-01-06T13:45:17.256Z,16.20
2018-01-06T13:47:44.933Z,13.03
2018-01-06T13:50:12.527Z,11.53
2018-01-06T13:52:40.849Z,11.07
2018-01-06T13:55:08.429Z,15.70
2018-01-06T13:57:36.016Z,18.40
2018-01-06T14:00:04.337Z,20.17
2018-01-06T14:02:31.926Z,21.37
2018-01-06T14:04:59.516Z,21.83
2018-01-06T14:07:27.208Z,19.00
2018-01-06T14:09:55.562Z,14.57
2018-01-06T14:12:23.897Z,13.73
2018-01-06T14:14:51.481Z,23.60
2018-01-06T14:17:19.041Z,18.70
2018-01-06T14:19:46.657Z,15.03
2018-01-06T14:22:14.224Z,11.80
2018-01-06T14:24:41.778Z,15.60
2018-01-06T14:27:09.353Z,14.63
2018-01-06T14:29:36.966Z,17.57
2018-01-06T14:32:04.519Z,13.53
2018-01-06T14:34:32.092Z,12.60
2018-01-06T14:37:00.449Z,17.70
2018-01-06T14:39:28.005Z,17.77
2018-01-06T14:41:55.592Z,24.10
2018-01-06T14:44:23.942Z,25.57
2018-01-06T14:46:51.540Z,22.73
2018-01-06T14:49:19.905Z,19.10
2018-01-06T14:51:47.488Z,25.00
2018-01-06T14:54:15.840Z,21.67
2018-01-06T14:56:43.449Z,21.87
2018-01-06T14:59:11.035Z,19.17
2018-01-06T15:01:38.759Z,26.43
2018-01-06T15:04:06.365Z,21.63
2018-01-06T15:06:33.950Z,21.50
2018-01-06T15:09:01.617Z,21.20
2018-01-06T15:11:29.180Z,24.97
2018-01-06T15:13:56.759Z,24.23
2018-01-06T15:16:25.133Z,28.43
2018-01-06T15:18:53.518Z,19.83
2018-01-06T15:21:21.094Z,25.73
2018-01-06T15:23:48.670Z,21.77
2018-01-06T15:26:16.276Z,25.57
2018-01-06T15:28:43.845Z,21.47
2018-01-06T15:31:11.493Z,20.33
2018-01-06T15:33:39.063Z,23.23
2018-01-06T15:36:06.650Z,27.37
2018-01-06T15:38:34.237Z,30.07
2018-01-06T15:41:01.809Z,30.40
2018-01-06T15:43:29.400Z,22.73
2018-01-06T15:45:57.242Z,32.37
2018-01-06T15:48:24.854Z,35.90
2018-01-06T15:50:53.197Z,36.77
2018-01-06T15:53:20.821Z,41.30
2018-01-06T15:55:48.402Z,31.63
2018-01-06T15:58:15.992Z,29.43
2018-01-06T16:00:43.605Z,50.77
2018-01-06T16:03:11.296Z,42.47
2018-01-06T16:05:38.871Z,40.67
2018-01-06T16:08:06.592Z,34.53
2018-01-06T16:10:34.158Z,28.37
2018-01-06T16:13:01.749Z,22.90
2018-01-06T16:15:29.379Z,27.77
2018-01-06T16:17:56.951Z,22.50
2018-01-06T16:20:24.526Z,20.73
2018-01-06T16:22:52.096Z,25.00
2018-01-06T16:25:19.737Z,23.33
2018-01-06T16:27:47.361Z,27.27
2018-01-06T16:30:15.744Z,27.37
2018-01-06T16:32:44.693Z,33.77
2018-01-06T16:35:12.804Z,38.03
2018-01-06T16:37:41.148Z,27.60
2018-01-06T16:40:08.726Z,25.80
2018-01-06T16:42:36.314Z,26.83
2018-01-06T16:45:04.662Z,28.00
2018-01-06T16:47:32.354Z,33.67
2018-01-06T16:50:00.685Z,37.90
2018-01-06T16:52:28.273Z,22.27
2018-01-06T16:54:56.609Z,24.87
2018-01-06T16:57:24.221Z,36.83
2018-01-06T16:59:52.558Z,33.43
2018-01-06T17:02:20.136Z,29.97
2018-01-06T17:04:47.904Z,30.13
2018-01-06T17:07:15.506Z,28.03
2018-01-06T17:09:43.088Z,27.53
2018-01-06T17:12:10.679Z,23.20
2018-01-06T17:14:38.269Z,29.00
2018-01-06T17:17:05.861Z,29.10
2018-01-06T17:19:33.478Z,46.70
2018-01-06T17:22:01.045Z,37.50
2018-01-06T17:24:28.606Z,30.23
2018-01-06T17:26:56.971Z,33.50
2018-01-06T17:29:24.565Z,33.47
2018-01-06T17:31:52.916Z,37.67
2018-01-06T17:34:20.516Z,39.50
2018-01-06T17:36:48.109Z,37.63
2018-01-06T17:39:15.700Z,42.20
2018-01-06T17:41:43.291Z,28.13
2018-01-06T17:44:11.645Z,29.57
2018-01-06T17:46:39.220Z,36.63
2018-01-06T17:49:07.555Z,32.50
2018-01-06T17:51:35.134Z,32.57
2018-01-06T17:54:02.718Z,34.53
2018-01-06T17:56:31.097Z,40.83
2018-01-06T17:58:59.452Z,37.23
2018-01-06T18:01:27.137Z,33.93
2018-01-06T18:03:54.691Z,28.57
2018-01-06T18:06:22.317Z,25.80
2018-01-06T18:08:49.898Z,37.77
2018-01-06T18:11:17.485Z,32.17
2018-01-06T18:13:45.818Z,32.23
2018-01-06T18:16:13.409Z,39.83
2018-01-06T18:18:40.987Z,35.90
2018-01-06T18:21:09.386Z,33.60
2018-01-06T18:23:37.732Z,32.87
2018-01-06T18:26:05.337Z,37.80
2018-01-06T18:28:32.942Z,31.20
2018-01-06T18:31:01.476Z,40.03
2018-01-06T18:33:29.071Z,37.87
2018-01-06T18:35:56.655Z,43.27
2018-01-06T18:38:24.220Z,33.23
2018-01-06T18:40:51.784Z,35.53
2018-01-06T18:43:19.362Z,38.53
2018-01-06T18:45:47.709Z,37.43
2018-01-06T18:48:15.353Z,35.37
2018-01-06T18:50:42.927Z,39.10
2018-01-06T18:53:10.511Z,38.13
2018-01-06T18:55:38.906Z,37.90
2018-01-06T18:58:07.243Z,39.23
2018-01-06T19:00:34.857Z,40.30
2018-01-06T19:03:02.446Z,37.87
2018-01-06T19:05:30.041Z,46.37
2018-01-06T19:07:57.610Z,43.20
2018-01-06T19:10:25.228Z,38.00
2018-01-06T19:12:52.829Z,35.50
2018-01-06T19:15:20.451Z,54.30
2018-01-06T19:17:48.083Z,58.33
2018-01-06T19:20:16.570Z,52.90
2018-01-06T19:22:44.958Z,40.43
2018-01-06T19:25:12.556Z,42.97
2018-01-06T19:27:40.126Z,46.30
2018-01-06T19:30:07.693Z,43.07
2018-01-06T19:49:01.621Z,41.70
2018-01-06T19:51:29.187Z,46.83
2018-01-06T19:53:56.972Z,48.17
2018-01-06T19:56:24.557Z,46.00
2018-01-06T19:58:52.278Z,49.07
2018-01-06T20:01:19.822Z,58.67
2018-01-06T20:03:48.188Z,52.60
2018-01-06T20:06:15.773Z,51.40
2018-01-06T20:08:44.102Z,56.40
2018-01-06T20:11:11.718Z,53.70
2018-01-06T20:13:39.350Z,52.90
2018-01-06T20:16:06.965Z,65.43
2018-01-06T20:18:35.300Z,62.90
2018-01-06T20:21:03.648Z,68.03
2018-01-06T20:23:31.233Z,73.63
2018-01-06T20:25:58.860Z,79.10
2018-01-06T20:28:26.428Z,66.93
2018-01-06T20:30:53.989Z,71.37
2018-01-06T20:33:21.640Z,66.53
2018-01-06T20:35:49.241Z,65.33
2018-01-06T20:38:16.957Z,54.03
2018-01-06T20:40:45.427Z,64.10
2018-01-06T20:43:13.180Z,61.83
2018-01-06T20:45:40.864Z,61.33
2018-01-06T20:48:08.476Z,56.33
2018-01-06T20:50:36.923Z,57.37
2018-01-06T20:53:04.512Z,62.07
2018-01-06T20:55:32.325Z,65.73
2018-01-06T20:58:00.093Z,62.70
2018-01-06T21:00:27.751Z,62.60
2018-01-06T21:02:55.306Z,54.80
2018-01-06T21:05:22.944Z,59.53
2018-01-06T21:07:51.277Z,58.77
2018-01-06T21:10:18.880Z,67.50
2018-01-06T21:12:47.247Z,52.47
2018-01-06T21:15:14.816Z,62.83
2018-01-06T21:17:43.147Z,66.20
2018-01-06T21:20:10.722Z,58.00
2018-01-06T21:22:38.289Z,60.60
2018-01-06T21:25:06.304Z,63.50
2018-01-06T21:27:34.673Z,62.10
2018-01-06T21:30:03.019Z,67.67
2018-01-06T21:32:30.625Z,60.83
2018-01-06T21:34:58.208Z,64.40
2018-01-06T21:37:25.842Z,62.27
2018-01-06T21:39:54.188Z,68.87
2018-01-06T21:42:21.782Z,62.20
2018-01-06T21:44:50.181Z,61.60
2018-01-06T21:47:17.802Z,64.80
2018-01-06T21:49:45.382Z,69.00
2018-01-06T21:52:13.761Z,62.67
2018-01-06T21:54:42.109Z,62.03
2018-01-06T21:57:09.709Z,68.30
2018-01-06T21:59:38.049Z,58.70
2018-01-06T22:02:05.673Z,65.57
2018-01-06T22:04:33.263Z,60.43
2018-01-06T22:07:00.842Z,59.47
2018-01-06T22:09:28.429Z,61.80
2018-01-06T22:11:56.836Z,65.50
2018-01-06T22:14:24.409Z,64.37
2018-01-06T22:16:52.014Z,59.97
2018-01-06T22:19:20.129Z,79.10
2018-01-06T22:21:47.739Z,68.30
2018-01-06T22:24:15.325Z,63.83
2018-01-06T22:26:43.705Z,64.60
2018-01-06T22:29:12.174Z,76.87
2018-01-06T22:31:39.878Z,64.40
2018-01-06T22:34:07.480Z,60.30
2018-01-06T22:36:35.149Z,60.37
2018-01-06T22:39:02.742Z,63.73
2018-01-06T22:41:31.093Z,71.30
2018-01-06T22:44:00.479Z,59.90
2018-01-06T22:46:28.088Z,71.00
2018-01-06T22:48:56.451Z,55.70
2018-01-06T22:51:24.284Z,55.97
2018-01-06T22:53:51.921Z,61.63
2018-01-06T22:56:19.503Z,60.00
2018-01-06T22:58:47.100Z,60.60
2018-01-06T23:01:20.586Z,56.03
2018-01-06T23:03:49.124Z,46.97
2018-01-06T23:06:16.796Z,63.87
2018-01-06T23:08:45.258Z,45.47
2018-01-06T23:11:13.690Z,43.83
2018-01-06T23:13:41.337Z,46.37
2018-01-06T23:16:10.049Z,53.37
2018-01-06T23:18:37.664Z,50.57
2018-01-06T23:21:06.084Z,35.57
2018-01-06T23:23:33.638Z,38.10
2018-01-06T23:26:01.213Z,32.50
2018-01-06T23:28:28.781Z,39.00
2018-01-06T23:30:57.365Z,39.70
2018-01-06T23:33:25.780Z,41.67
2018-01-06T23:35:53.354Z,40.50
2018-01-06T23:38:20.913Z,39.77
2018-01-06T23:40:48.473Z,35.60
2018-01-06T23:43:16.121Z,34.63
2018-01-06T23:45:43.698Z,35.47
2018-01-06T23:48:11.270Z,32.00
2018-01-06T23:50:38.853Z,33.30
2018-01-06T23:53:06.454Z,35.83
2018-01-06T23:55:34.142Z,31.70
2018-01-06T23:58:01.721Z,33.13
